Greenville, NC

7:58 PM EST on December 03, 2016 (GMT -0500)
Pitt-Greenville

Weather History for KPGV - December, 2012

Change the Weather History Date:

Friday, December 21, 2012

  Actual Average Record
Temperature  
Mean Temperature 48 °F -  
Max Temperature 62 °F 55 °F 73 °F (2013)
Min Temperature 35 °F 33 °F 3 °F (1997)
Degree Days  
Heating Degree Days 16    
Moisture  
Dew Point 30 °F    
Average Humidity 58    
Maximum Humidity 100    
Minimum Humidity 39    
Precipitation  
Precipitation 0.15 in - - ()
Sea Level Pressure  
Sea Level Pressure 29.65 in    
Wind  
Wind Speed 15 mph (West)    
Max Wind Speed 22 mph    
Max Gust Speed 34 mph    
Visibility 10 miles    
Events      
Averages and records for this station are not official NWS values.
T = Trace of Precipitation, MM = Missing Value Source: NWS Daily Summary

Daily Weather History Graph

Daily Weather History Graph

Search for Another Location

Airport or City:

Trip Planner

Search our weather history database for the weather conditions in past years. The results will help you decide how hot, cold, wet, or windy it might be!

Date:

Astronomy

Dec. 21, 2012 Rise Set
Actual Time 7:15 AM EST 5:00 PM EST
Civil Twilight 6:47 AM EST 5:28 PM EST
Nautical Twilight 6:15 AM EST 6:00 PM EST
Astronomical Twilight 5:44 AM EST 6:31 PM EST
Moon 12:38 PM EST (12/21) 1:08 AM EST (12/21)
Length of Visible Light 10h 41m
Length of Day
9h 44m
Waxing Gibbous, 64% of the Moon is Illuminated
Dec 21
Waxing Gibbous
Dec 28
Full
Jan 4
Last Quarter
Jan 11
New
Jan 18
First Quarter

Hourly Weather History & Observations

Time (EST) Temp. Windchill Dew Point Humidity Pressure Visibility Wind Dir Wind Speed Gust Speed Precip Events Conditions
12:15 AM 60.8 °F - 59.0 °F 94% 29.54 in 5.0 mi South 21.9 mph 32.2 mph 0.03 in   Overcast
12:35 AM 60.8 °F - 59.0 °F 94% 29.51 in 5.0 mi South 20.7 mph 33.4 mph 0.10 in   Overcast
12:55 AM 60.8 °F - 60.8 °F 100% 29.49 in 10.0 mi South 20.7 mph 31.1 mph 0.11 in   Overcast
1:15 AM 60.8 °F - 60.8 °F 100% 29.48 in 10.0 mi SSW 17.3 mph 25.3 mph N/A   Overcast
1:35 AM 62.6 °F - 60.8 °F 94% 29.47 in 7.0 mi SSW 17.3 mph 27.6 mph 0.01 in   Overcast
1:55 AM 60.8 °F - 59.0 °F 94% 29.49 in 7.0 mi WSW 19.6 mph 28.8 mph 0.03 in   Overcast
2:15 AM 55.4 °F - 51.8 °F 88% 29.51 in 7.0 mi WSW 16.1 mph 32.2 mph 0.01 in   Overcast
2:35 AM 55.4 °F - 44.6 °F 67% 29.51 in 10.0 mi WSW 12.7 mph 24.2 mph 0.01 in   Overcast
2:55 AM 53.6 °F - 42.8 °F 67% 29.53 in 10.0 mi West 13.8 mph 23.0 mph 0.01 in   Scattered Clouds
3:15 AM 51.8 °F - 42.8 °F 71% 29.54 in 10.0 mi West 17.3 mph 26.5 mph N/A   Scattered Clouds
3:35 AM 50.0 °F - 39.2 °F 66% 29.55 in 10.0 mi West 11.5 mph 19.6 mph N/A   Clear
3:55 AM 48.2 °F - 39.2 °F 71% 29.54 in 10.0 mi West 12.7 mph 17.3 mph N/A   Clear
4:15 AM 48.2 °F - 39.2 °F 71% 29.55 in 10.0 mi West 13.8 mph 18.4 mph N/A   Mostly Cloudy
4:35 AM 46.4 °F 40.7 °F 37.4 °F 71% 29.55 in 10.0 mi WSW 12.7 mph 25.3 mph N/A   Overcast
4:55 AM 46.4 °F 39.5 °F 35.6 °F 66% 29.56 in 10.0 mi West 17.3 mph 29.9 mph N/A   Overcast
5:15 AM 44.6 °F 37.4 °F 33.8 °F 66% 29.57 in 10.0 mi WSW 16.1 mph 21.9 mph N/A   Scattered Clouds
5:35 AM 44.6 °F 38.1 °F 33.8 °F 66% 29.57 in 10.0 mi West 13.8 mph 24.2 mph N/A   Clear
5:55 AM 44.6 °F 37.8 °F 33.8 °F 66% 29.59 in 10.0 mi West 15.0 mph 26.5 mph N/A   Clear
6:15 AM 44.6 °F 37.2 °F 30.2 °F 57% 29.60 in 10.0 mi West 17.3 mph 28.8 mph N/A   Clear
6:35 AM 42.8 °F 35.8 °F 30.2 °F 61% 29.61 in 10.0 mi West 13.8 mph 19.6 mph N/A   Clear
6:55 AM 42.8 °F 38.0 °F 32.0 °F 66% 29.62 in 10.0 mi West 8.1 mph - N/A   Clear
7:15 AM 41.0 °F 35.8 °F 33.8 °F 76% 29.63 in 10.0 mi West 8.1 mph - N/A   Scattered Clouds
7:35 AM 41.0 °F 34.3 °F 32.0 °F 70% 29.64 in 10.0 mi WSW 11.5 mph 18.4 mph N/A   Scattered Clouds
7:55 AM 41.0 °F 35.2 °F 32.0 °F 70% 29.64 in 10.0 mi West 9.2 mph 19.6 mph N/A   Scattered Clouds
8:15 AM 41.0 °F 34.3 °F 32.0 °F 70% 29.64 in 10.0 mi WSW 11.5 mph 20.7 mph N/A   Clear
8:35 AM 42.8 °F 35.1 °F 32.0 °F 66% 29.64 in 10.0 mi West 16.1 mph 21.9 mph N/A   Clear
8:55 AM 42.8 °F 36.2 °F 30.2 °F 61% 29.65 in 10.0 mi WSW 12.7 mph 20.7 mph N/A   Clear
9:15 AM 42.8 °F 35.8 °F 30.2 °F 61% 29.65 in 10.0 mi West 13.8 mph 20.7 mph N/A   Clear
9:35 AM 42.8 °F 35.4 °F 30.2 °F 61% 29.66 in 10.0 mi West 15.0 mph 25.3 mph N/A   Clear
9:55 AM 44.6 °F 38.8 °F 28.4 °F 53% 29.66 in 10.0 mi West 11.5 mph 27.6 mph N/A   Clear
10:15 AM 44.6 °F 38.4 °F 28.4 °F 53% 29.66 in 10.0 mi West 12.7 mph 23.0 mph N/A   Clear
10:35 AM 44.6 °F 38.1 °F 28.4 °F 53% 29.67 in 10.0 mi West 13.8 mph 29.9 mph N/A   Clear
10:55 AM 46.4 °F 40.7 °F 30.2 °F 53% 29.66 in 10.0 mi West 12.7 mph 26.5 mph N/A   Scattered Clouds
11:15 AM 44.6 °F 36.9 °F 28.4 °F 53% 29.65 in 10.0 mi West 18.4 mph 34.5 mph N/A   Scattered Clouds
11:35 AM 46.4 °F 38.7 °F 28.4 °F 50% 29.64 in 10.0 mi West 20.7 mph 27.6 mph N/A   Overcast
11:55 AM 44.6 °F 36.6 °F 26.6 °F 49% 29.64 in 10.0 mi West 19.6 mph 28.8 mph N/A   Overcast
12:15 PM 44.6 °F 39.2 °F 26.6 °F 49% 29.64 in 10.0 mi West 10.4 mph 24.2 mph N/A   Overcast
12:35 PM 44.6 °F 38.4 °F 26.6 °F 49% 29.64 in 10.0 mi West 12.7 mph 25.3 mph N/A   Overcast
12:55 PM 44.6 °F 37.4 °F 26.6 °F 49% 29.64 in 10.0 mi West 16.1 mph 24.2 mph N/A   Overcast
1:15 PM 44.6 °F 36.9 °F 26.6 °F 49% 29.64 in 10.0 mi WNW 18.4 mph 27.6 mph N/A   Mostly Cloudy
1:35 PM 44.6 °F 37.8 °F 23.0 °F 43% 29.63 in 10.0 mi West 15.0 mph 24.2 mph N/A   Mostly Cloudy
1:55 PM 44.6 °F 39.2 °F 21.2 °F 39% 29.64 in 10.0 mi West 10.4 mph 21.9 mph N/A   Overcast
2:15 PM 44.6 °F 39.7 °F 21.2 °F 39% 29.64 in 10.0 mi West 9.2 mph 23.0 mph N/A   Overcast
2:35 PM 44.6 °F 38.8 °F 21.2 °F 39% 29.64 in 10.0 mi West 11.5 mph 21.9 mph N/A   Overcast
2:55 PM 44.6 °F 38.8 °F 23.0 °F 43% 29.65 in 10.0 mi WNW 11.5 mph 19.6 mph N/A   Overcast
3:15 PM 44.6 °F 38.4 °F 23.0 °F 43% 29.65 in 10.0 mi West 12.7 mph 25.3 mph N/A   Mostly Cloudy
3:35 PM 44.6 °F 38.1 °F 21.2 °F 39% 29.65 in 10.0 mi West 13.8 mph 29.9 mph N/A   Mostly Cloudy
3:55 PM 44.6 °F 38.8 °F 21.2 °F 39% 29.66 in 10.0 mi WNW 11.5 mph 18.4 mph N/A   Mostly Cloudy
4:15 PM 44.6 °F 38.1 °F 21.2 °F 39% 29.67 in 10.0 mi West 13.8 mph 19.6 mph N/A   Mostly Cloudy
4:35 PM 42.8 °F 37.0 °F 21.2 °F 42% 29.68 in 10.0 mi West 10.4 mph 17.3 mph N/A   Mostly Cloudy
4:55 PM 42.8 °F 36.6 °F 21.2 °F 42% 29.69 in 10.0 mi West 11.5 mph 24.2 mph N/A   Mostly Cloudy
5:15 PM 42.8 °F 36.6 °F 21.2 °F 42% 29.70 in 10.0 mi West 11.5 mph 25.3 mph N/A   Mostly Cloudy
5:35 PM 41.0 °F 33.9 °F 21.2 °F 45% 29.72 in 10.0 mi WNW 12.7 mph 25.3 mph N/A   Scattered Clouds
5:55 PM 41.0 °F 33.5 °F 21.2 °F 45% 29.73 in 10.0 mi WNW 13.8 mph 25.3 mph N/A   Clear
6:15 PM 41.0 °F 35.2 °F 21.2 °F 45% 29.74 in 10.0 mi West 9.2 mph 16.1 mph N/A   Scattered Clouds
6:35 PM 41.0 °F 34.7 °F 21.2 °F 45% 29.74 in 10.0 mi West 10.4 mph 17.3 mph N/A   Scattered Clouds
6:55 PM 41.0 °F 35.8 °F 21.2 °F 45% 29.75 in 10.0 mi West 8.1 mph 17.3 mph N/A   Scattered Clouds
7:15 PM 39.2 °F 31.6 °F 19.4 °F 45% 29.75 in 10.0 mi WNW 12.7 mph 20.7 mph N/A   Clear
7:35 PM 39.2 °F 34.2 °F 19.4 °F 45% 29.76 in 10.0 mi West 6.9 mph 19.6 mph N/A   Clear
7:55 PM 39.2 °F 32.5 °F 19.4 °F 45% 29.76 in 10.0 mi WNW 10.4 mph 20.7 mph N/A   Scattered Clouds
8:15 PM 37.4 °F 30.8 °F 19.4 °F 48% 29.77 in 10.0 mi WNW 9.2 mph 23.0 mph N/A   Clear
8:35 PM 37.4 °F 30.8 °F 21.2 °F 52% 29.77 in 10.0 mi WNW 9.2 mph 20.7 mph N/A   Clear
8:55 PM 37.4 °F 29.8 °F 19.4 °F 48% 29.78 in 10.0 mi WNW 11.5 mph 24.2 mph N/A   Clear
9:15 PM 37.4 °F 28.9 °F 19.4 °F 48% 29.79 in 10.0 mi West 13.8 mph 19.6 mph N/A   Clear
9:35 PM 37.4 °F 30.3 °F 19.4 °F 48% 29.79 in 10.0 mi West 10.4 mph 17.3 mph N/A   Clear
9:55 PM 37.4 °F 30.8 °F 19.4 °F 48% 29.80 in 10.0 mi West 9.2 mph - N/A   Clear
10:15 PM 35.6 °F 29.9 °F 19.4 °F 52% 29.80 in 10.0 mi West 6.9 mph 16.1 mph N/A   Clear
10:35 PM 35.6 °F 28.6 °F 21.2 °F 56% 29.80 in 10.0 mi West 9.2 mph - N/A   Scattered Clouds
10:55 PM 35.6 °F 28.6 °F 21.2 °F 56% 29.80 in 10.0 mi West 9.2 mph - N/A   Scattered Clouds
11:15 PM 35.6 °F 30.7 °F 21.2 °F 56% 29.81 in 10.0 mi West 5.8 mph - N/A   Clear
11:35 PM 35.6 °F 27.1 °F 21.2 °F 56% 29.81 in 10.0 mi West 12.7 mph 17.3 mph N/A   Clear
11:55 PM 35.6 °F 29.9 °F 21.2 °F 56% 29.82 in 10.0 mi West 6.9 mph - N/A   Clear